sensor_id;sensor_type;location;lat;lon;timestamp;temperature;humidity
10873;DHT22;34586;53.616;10.032;2023-01-08T00:01:56;9.10;1.00
10873;DHT22;34586;53.616;10.032;2023-01-08T00:04:22;9.00;1.00
10873;DHT22;34586;53.616;10.032;2023-01-08T00:06:48;9.00;1.00
10873;DHT22;34586;53.616;10.032;2023-01-08T00:09:13;9.10;1.00
10873;DHT22;34586;53.616;10.032;2023-01-08T00:11:39;9.10;1.00
10873;DHT22;34586;53.616;10.032;2023-01-08T00:14:05;9.10;1.00
10873;DHT22;34586;53.616;10.032;2023-01-08T00:16:30;9.10;1.00
10873;DHT22;34586;53.616;10.032;2023-01-08T00:18:56;9.10;1.00
10873;DHT22;34586;53.616;10.032;2023-01-08T00:21:22;9.20;1.00
10873;DHT22;34586;53.616;10.032;2023-01-08T00:23:47;9.10;1.00
10873;DHT22;34586;53.616;10.032;2023-01-08T00:26:13;9.20;1.00
10873;DHT22;34586;53.616;10.032;2023-01-08T00:28:39;9.10;1.00
10873;DHT22;34586;53.616;10.032;2023-01-08T00:31:07;9.20;1.00
10873;DHT22;34586;53.616;10.032;2023-01-08T00:33:34;9.20;1.00
10873;DHT22;34586;53.616;10.032;2023-01-08T00:36:05;9.20;1.00
10873;DHT22;34586;53.616;10.032;2023-01-08T00:38:31;9.10;1.00
10873;DHT22;34586;53.616;10.032;2023-01-08T00:40:56;9.20;1.00
10873;DHT22;34586;53.616;10.032;2023-01-08T00:43:22;9.20;1.00
10873;DHT22;34586;53.616;10.032;2023-01-08T00:45:48;9.20;1.00
10873;DHT22;34586;53.616;10.032;2023-01-08T00:48:18;9.20;1.00
10873;DHT22;34586;53.616;10.032;2023-01-08T00:50:43;9.20;1.00
10873;DHT22;34586;53.616;10.032;2023-01-08T00:53:09;9.20;1.00
10873;DHT22;34586;53.616;10.032;2023-01-08T00:55:35;9.30;1.00
10873;DHT22;34586;53.616;10.032;2023-01-08T00:58:00;9.20;1.00
10873;DHT22;34586;53.616;10.032;2023-01-08T01:00:26;9.30;1.00
10873;DHT22;34586;53.616;10.032;2023-01-08T01:02:52;9.30;1.00
10873;DHT22;34586;53.616;10.032;2023-01-08T01:05:18;9.30;1.00
10873;DHT22;34586;53.616;10.032;2023-01-08T01:07:44;9.30;1.00
10873;DHT22;34586;53.616;10.032;2023-01-08T01:10:11;9.30;1.00
10873;DHT22;34586;53.616;10.032;2023-01-08T01:12:37;9.30;1.00
10873;DHT22;34586;53.616;10.032;2023-01-08T01:15:05;9.30;1.00
10873;DHT22;34586;53.616;10.032;2023-01-08T01:17:31;9.40;1.00
10873;DHT22;34586;53.616;10.032;2023-01-08T01:19:56;9.40;1.00
10873;DHT22;34586;53.616;10.032;2023-01-08T01:22:22;9.40;1.00
10873;DHT22;34586;53.616;10.032;2023-01-08T01:24:47;9.40;1.00
10873;DHT22;34586;53.616;10.032;2023-01-08T01:27:13;9.40;1.00
10873;DHT22;34586;53.616;10.032;2023-01-08T01:29:39;9.40;1.00
10873;DHT22;34586;53.616;10.032;2023-01-08T01:32:04;9.40;1.00
10873;DHT22;34586;53.616;10.032;2023-01-08T01:34:30;9.40;1.00
10873;DHT22;34586;53.616;10.032;2023-01-08T01:36:56;9.40;1.00
10873;DHT22;34586;53.616;10.032;2023-01-08T01:39:21;9.50;1.00
10873;DHT22;34586;53.616;10.032;2023-01-08T01:41:47;9.50;1.00
10873;DHT22;34586;53.616;10.032;2023-01-08T01:47:03;9.50;1.00
10873;DHT22;34586;53.616;10.032;2023-01-08T01:49:30;9.50;1.00
10873;DHT22;34586;53.616;10.032;2023-01-08T01:51:58;9.50;1.00
10873;DHT22;34586;53.616;10.032;2023-01-08T01:54:27;9.50;1.00
10873;DHT22;34586;53.616;10.032;2023-01-08T01:56:54;9.60;1.00
10873;DHT22;34586;53.616;10.032;2023-01-08T01:59:20;9.60;1.00
10873;DHT22;34586;53.616;10.032;2023-01-08T02:01:45;9.70;1.00
10873;DHT22;34586;53.616;10.032;2023-01-08T02:04:12;9.60;1.00
10873;DHT22;34586;53.616;10.032;2023-01-08T02:12:23;9.70;1.00
10873;DHT22;34586;53.616;10.032;2023-01-08T02:17:49;9.70;1.00
10873;DHT22;34586;53.616;10.032;2023-01-08T02:20:30;9.70;1.00
10873;DHT22;34586;53.616;10.032;2023-01-08T02:28:29;9.70;1.00
10873;DHT22;34586;53.616;10.032;2023-01-08T02:30:56;9.70;1.00
10873;DHT22;34586;53.616;10.032;2023-01-08T02:33:23;9.70;1.00
10873;DHT22;34586;53.616;10.032;2023-01-08T02:35:54;9.70;1.00
10873;DHT22;34586;53.616;10.032;2023-01-08T02:38:36;9.70;1.00
10873;DHT22;34586;53.616;10.032;2023-01-08T02:41:08;9.70;1.00
10873;DHT22;34586;53.616;10.032;2023-01-08T02:43:40;9.70;1.00
10873;DHT22;34586;53.616;10.032;2023-01-08T02:46:11;9.70;1.00
10873;DHT22;34586;53.616;10.032;2023-01-08T02:48:43;9.60;1.00
10873;DHT22;34586;53.616;10.032;2023-01-08T02:51:21;9.60;1.00
10873;DHT22;34586;53.616;10.032;2023-01-08T02:53:50;9.60;1.00
10873;DHT22;34586;53.616;10.032;2023-01-08T02:56:26;9.60;1.00
10873;DHT22;34586;53.616;10.032;2023-01-08T02:58:53;9.50;1.00
10873;DHT22;34586;53.616;10.032;2023-01-08T03:01:23;9.50;1.00
10873;DHT22;34586;53.616;10.032;2023-01-08T03:03:56;9.50;1.00
10873;DHT22;34586;53.616;10.032;2023-01-08T03:06:24;9.50;1.00
10873;DHT22;34586;53.616;10.032;2023-01-08T03:08:52;9.50;1.00
10873;DHT22;34586;53.616;10.032;2023-01-08T03:11:20;9.50;1.00
10873;DHT22;34586;53.616;10.032;2023-01-08T03:16:37;9.60;1.00
10873;DHT22;34586;53.616;10.032;2023-01-08T03:19:13;9.60;1.00
10873;DHT22;34586;53.616;10.032;2023-01-08T03:21:42;9.60;1.00
10873;DHT22;34586;53.616;10.032;2023-01-08T03:24:11;9.50;1.00
10873;DHT22;34586;53.616;10.032;2023-01-08T03:26:38;9.50;1.00
10873;DHT22;34586;53.616;10.032;2023-01-08T03:29:09;9.60;1.00
10873;DHT22;34586;53.616;10.032;2023-01-08T03:31:38;9.60;1.00
10873;DHT22;34586;53.616;10.032;2023-01-08T03:34:05;9.50;1.00
10873;DHT22;34586;53.616;10.032;2023-01-08T03:36:33;9.40;1.00
10873;DHT22;34586;53.616;10.032;2023-01-08T03:39:07;9.50;1.00
10873;DHT22;34586;53.616;10.032;2023-01-08T03:41:35;9.40;1.00
10873;DHT22;34586;53.616;10.032;2023-01-08T03:44:01;9.30;1.80
10873;DHT22;34586;53.616;10.032;2023-01-08T03:46:36;9.30;17.80
10873;DHT22;34586;53.616;10.032;2023-01-08T03:49:03;9.20;20.90
10873;DHT22;34586;53.616;10.032;2023-01-08T03:51:38;9.20;25.40
10873;DHT22;34586;53.616;10.032;2023-01-08T03:54:04;9.20;44.80
10873;DHT22;34586;53.616;10.032;2023-01-08T03:56:30;9.30;21.60
10873;DHT22;34586;53.616;10.032;2023-01-08T03:58:56;9.30;27.30
10873;DHT22;34586;53.616;10.032;2023-01-08T04:01:21;9.40;25.70
10873;DHT22;34586;53.616;10.032;2023-01-08T04:03:47;9.40;21.10
10873;DHT22;34586;53.616;10.032;2023-01-08T04:06:12;9.40;10.40
10873;DHT22;34586;53.616;10.032;2023-01-08T04:08:38;9.40;3.80
10873;DHT22;34586;53.616;10.032;2023-01-08T04:11:04;9.50;2.70
10873;DHT22;34586;53.616;10.032;2023-01-08T04:13:29;9.50;4.90
10873;DHT22;34586;53.616;10.032;2023-01-08T04:15:55;9.50;1.00
10873;DHT22;34586;53.616;10.032;2023-01-08T04:18:22;9.50;1.00
10873;DHT22;34586;53.616;10.032;2023-01-08T04:20:47;9.60;13.10
10873;DHT22;34586;53.616;10.032;2023-01-08T04:23:13;9.60;3.90
10873;DHT22;34586;53.616;10.032;2023-01-08T04:25:39;9.60;1.00
10873;DHT22;34586;53.616;10.032;2023-01-08T04:28:05;9.60;8.00
10873;DHT22;34586;53.616;10.032;2023-01-08T04:30:30;9.50;23.00
10873;DHT22;34586;53.616;10.032;2023-01-08T04:32:56;9.60;24.30
10873;DHT22;34586;53.616;10.032;2023-01-08T04:35:22;9.60;22.10
10873;DHT22;34586;53.616;10.032;2023-01-08T04:37:48;9.60;7.70
10873;DHT22;34586;53.616;10.032;2023-01-08T04:40:13;9.60;18.30
10873;DHT22;34586;53.616;10.032;2023-01-08T04:42:39;9.60;17.30
10873;DHT22;34586;53.616;10.032;2023-01-08T04:45:06;9.60;12.50
10873;DHT22;34586;53.616;10.032;2023-01-08T04:47:31;9.60;31.80
10873;DHT22;34586;53.616;10.032;2023-01-08T04:49:57;9.60;26.50
10873;DHT22;34586;53.616;10.032;2023-01-08T04:52:23;9.60;17.10
10873;DHT22;34586;53.616;10.032;2023-01-08T04:54:48;9.70;5.30
10873;DHT22;34586;53.616;10.032;2023-01-08T04:57:14;9.70;6.30
10873;DHT22;34586;53.616;10.032;2023-01-08T04:59:40;9.70;13.60
10873;DHT22;34586;53.616;10.032;2023-01-08T05:02:05;9.70;9.60
10873;DHT22;34586;53.616;10.032;2023-01-08T05:04:31;9.70;9.20
10873;DHT22;34586;53.616;10.032;2023-01-08T05:06:56;9.80;3.90
10873;DHT22;34586;53.616;10.032;2023-01-08T05:09:22;9.70;1.00
10873;DHT22;34586;53.616;10.032;2023-01-08T05:11:47;9.70;5.60
10873;DHT22;34586;53.616;10.032;2023-01-08T05:14:13;9.70;15.50
10873;DHT22;34586;53.616;10.032;2023-01-08T05:16:39;9.70;14.60
10873;DHT22;34586;53.616;10.032;2023-01-08T05:19:04;9.70;25.10
10873;DHT22;34586;53.616;10.032;2023-01-08T05:21:30;9.60;28.50
10873;DHT22;34586;53.616;10.032;2023-01-08T05:23:56;9.60;38.90
10873;DHT22;34586;53.616;10.032;2023-01-08T05:26:21;9.60;33.40
10873;DHT22;34586;53.616;10.032;2023-01-08T05:28:47;9.50;47.60
10873;DHT22;34586;53.616;10.032;2023-01-08T05:31:13;9.60;26.40
10873;DHT22;34586;53.616;10.032;2023-01-08T05:33:39;9.60;28.20
10873;DHT22;34586;53.616;10.032;2023-01-08T05:36:06;9.60;19.40
10873;DHT22;34586;53.616;10.032;2023-01-08T05:38:32;9.60;33.60
10873;DHT22;34586;53.616;10.032;2023-01-08T05:40:58;9.60;29.10
10873;DHT22;34586;53.616;10.032;2023-01-08T05:43:24;9.60;26.60
10873;DHT22;34586;53.616;10.032;2023-01-08T05:45:49;9.60;17.70
10873;DHT22;34586;53.616;10.032;2023-01-08T05:48:15;9.60;41.60
10873;DHT22;34586;53.616;10.032;2023-01-08T05:50:40;9.60;32.40
10873;DHT22;34586;53.616;10.032;2023-01-08T05:53:07;9.60;30.00
10873;DHT22;34586;53.616;10.032;2023-01-08T05:55:33;9.60;55.50
10873;DHT22;34586;53.616;10.032;2023-01-08T05:58:03;9.50;44.90
10873;DHT22;34586;53.616;10.032;2023-01-08T06:00:29;9.50;61.20
10873;DHT22;34586;53.616;10.032;2023-01-08T06:02:55;9.50;58.00
10873;DHT22;34586;53.616;10.032;2023-01-08T06:05:21;9.50;53.80
10873;DHT22;34586;53.616;10.032;2023-01-08T06:07:46;9.50;64.10
10873;DHT22;34586;53.616;10.032;2023-01-08T06:10:12;9.60;68.60
10873;DHT22;34586;53.616;10.032;2023-01-08T06:12:37;9.60;67.60
10873;DHT22;34586;53.616;10.032;2023-01-08T06:15:04;9.50;61.90
10873;DHT22;34586;53.616;10.032;2023-01-08T06:17:30;9.50;65.60
10873;DHT22;34586;53.616;10.032;2023-01-08T06:19:55;9.50;68.80
10873;DHT22;34586;53.616;10.032;2023-01-08T06:22:21;9.60;70.60
10873;DHT22;34586;53.616;10.032;2023-01-08T06:24:47;9.60;72.50
10873;DHT22;34586;53.616;10.032;2023-01-08T06:27:12;9.40;81.80
10873;DHT22;34586;53.616;10.032;2023-01-08T06:29:38;9.50;91.00
10873;DHT22;34586;53.616;10.032;2023-01-08T06:32:04;9.40;96.50
10873;DHT22;34586;53.616;10.032;2023-01-08T06:34:29;9.40;94.00
10873;DHT22;34586;53.616;10.032;2023-01-08T06:36:55;9.40;95.10
10873;DHT22;34586;53.616;10.032;2023-01-08T06:39:20;9.40;97.10
10873;DHT22;34586;53.616;10.032;2023-01-08T06:41:46;9.40;98.50
10873;DHT22;34586;53.616;10.032;2023-01-08T06:44:12;9.50;99.90
10873;DHT22;34586;53.616;10.032;2023-01-08T06:46:37;9.40;99.90
10873;DHT22;34586;53.616;10.032;2023-01-08T06:49:08;9.40;99.90
10873;DHT22;34586;53.616;10.032;2023-01-08T06:51:34;9.40;99.90
10873;DHT22;34586;53.616;10.032;2023-01-08T06:54:00;9.40;99.90
10873;DHT22;34586;53.616;10.032;2023-01-08T06:56:25;9.30;99.90
10873;DHT22;34586;53.616;10.032;2023-01-08T06:58:51;9.40;99.90
10873;DHT22;34586;53.616;10.032;2023-01-08T07:01:17;9.40;99.90
10873;DHT22;34586;53.616;10.032;2023-01-08T07:03:42;9.40;99.90
10873;DHT22;34586;53.616;10.032;2023-01-08T07:06:22;9.40;99.90
10873;DHT22;34586;53.616;10.032;2023-01-08T07:08:48;9.40;99.90
10873;DHT22;34586;53.616;10.032;2023-01-08T07:11:15;9.40;99.90
10873;DHT22;34586;53.616;10.032;2023-01-08T07:13:40;9.50;99.90
10873;DHT22;34586;53.616;10.032;2023-01-08T07:16:07;9.30;99.90
10873;DHT22;34586;53.616;10.032;2023-01-08T07:18:34;9.30;99.90
10873;DHT22;34586;53.616;10.032;2023-01-08T07:21:01;9.30;99.90
10873;DHT22;34586;53.616;10.032;2023-01-08T07:23:27;9.30;99.90
10873;DHT22;34586;53.616;10.032;2023-01-08T07:25:52;9.30;99.90
10873;DHT22;34586;53.616;10.032;2023-01-08T07:28:18;9.20;99.90
10873;DHT22;34586;53.616;10.032;2023-01-08T07:30:44;9.30;99.90
10873;DHT22;34586;53.616;10.032;2023-01-08T07:33:09;9.30;99.90
10873;DHT22;34586;53.616;10.032;2023-01-08T07:35:35;9.30;99.90
10873;DHT22;34586;53.616;10.032;2023-01-08T07:38:01;9.30;99.90
10873;DHT22;34586;53.616;10.032;2023-01-08T07:40:26;9.30;99.90
10873;DHT22;34586;53.616;10.032;2023-01-08T07:42:59;9.30;99.90
10873;DHT22;34586;53.616;10.032;2023-01-08T07:45:26;9.30;99.90
10873;DHT22;34586;53.616;10.032;2023-01-08T07:47:52;9.30;99.90
10873;DHT22;34586;53.616;10.032;2023-01-08T07:50:18;9.30;99.90
10873;DHT22;34586;53.616;10.032;2023-01-08T07:52:43;9.30;99.90
10873;DHT22;34586;53.616;10.032;2023-01-08T07:55:09;9.30;99.90
10873;DHT22;34586;53.616;10.032;2023-01-08T07:57:34;9.30;99.90
10873;DHT22;34586;53.616;10.032;2023-01-08T08:00:00;9.30;99.90
10873;DHT22;34586;53.616;10.032;2023-01-08T08:02:25;9.30;99.90
10873;DHT22;34586;53.616;10.032;2023-01-08T08:04:51;9.20;99.90
10873;DHT22;34586;53.616;10.032;2023-01-08T08:07:16;9.40;99.90
10873;DHT22;34586;53.616;10.032;2023-01-08T08:09:42;9.30;99.90
10873;DHT22;34586;53.616;10.032;2023-01-08T08:12:08;9.40;99.90
10873;DHT22;34586;53.616;10.032;2023-01-08T08:14:33;9.40;99.90
10873;DHT22;34586;53.616;10.032;2023-01-08T08:16:59;9.40;99.90
10873;DHT22;34586;53.616;10.032;2023-01-08T08:19:25;9.40;99.90
10873;DHT22;34586;53.616;10.032;2023-01-08T08:21:51;9.30;99.90
10873;DHT22;34586;53.616;10.032;2023-01-08T08:24:16;9.40;99.90
10873;DHT22;34586;53.616;10.032;2023-01-08T08:26:42;9.40;99.90
10873;DHT22;34586;53.616;10.032;2023-01-08T08:29:07;9.30;99.90
10873;DHT22;34586;53.616;10.032;2023-01-08T08:31:33;9.30;99.90
10873;DHT22;34586;53.616;10.032;2023-01-08T08:33:58;9.40;99.90
10873;DHT22;34586;53.616;10.032;2023-01-08T08:36:28;9.30;99.90
10873;DHT22;34586;53.616;10.032;2023-01-08T08:38:54;9.30;99.90
10873;DHT22;34586;53.616;10.032;2023-01-08T08:41:19;9.30;99.90
10873;DHT22;34586;53.616;10.032;2023-01-08T08:43:45;9.40;99.90
10873;DHT22;34586;53.616;10.032;2023-01-08T08:46:11;9.40;99.90
10873;DHT22;34586;53.616;10.032;2023-01-08T08:48:36;9.40;99.90
10873;DHT22;34586;53.616;10.032;2023-01-08T08:51:03;9.40;99.90
10873;DHT22;34586;53.616;10.032;2023-01-08T08:53:28;9.40;99.90
10873;DHT22;34586;53.616;10.032;2023-01-08T08:55:57;9.50;99.90
10873;DHT22;34586;53.616;10.032;2023-01-08T08:58:23;9.40;99.90
10873;DHT22;34586;53.616;10.032;2023-01-08T09:00:48;9.50;99.90
10873;DHT22;34586;53.616;10.032;2023-01-08T09:03:14;9.60;99.90
10873;DHT22;34586;53.616;10.032;2023-01-08T09:05:41;9.50;99.90
10873;DHT22;34586;53.616;10.032;2023-01-08T09:08:10;9.60;99.90
10873;DHT22;34586;53.616;10.032;2023-01-08T09:10:38;9.60;99.90
10873;DHT22;34586;53.616;10.032;2023-01-08T09:13:05;9.60;99.90
10873;DHT22;34586;53.616;10.032;2023-01-08T09:15:31;9.60;99.90
10873;DHT22;34586;53.616;10.032;2023-01-08T09:17:57;9.60;99.90
10873;DHT22;34586;53.616;10.032;2023-01-08T09:20:24;9.70;99.90
10873;DHT22;34586;53.616;10.032;2023-01-08T09:22:50;9.70;99.90
10873;DHT22;34586;53.616;10.032;2023-01-08T09:25:16;9.70;99.90
10873;DHT22;34586;53.616;10.032;2023-01-08T09:27:41;9.80;99.90
10873;DHT22;34586;53.616;10.032;2023-01-08T09:30:07;9.80;99.90
10873;DHT22;34586;53.616;10.032;2023-01-08T09:32:33;9.80;99.90
10873;DHT22;34586;53.616;10.032;2023-01-08T09:34:59;9.80;99.90
10873;DHT22;34586;53.616;10.032;2023-01-08T09:37:24;9.90;99.90
10873;DHT22;34586;53.616;10.032;2023-01-08T09:39:50;9.80;99.90
10873;DHT22;34586;53.616;10.032;2023-01-08T09:42:20;9.80;99.90
10873;DHT22;34586;53.616;10.032;2023-01-08T09:44:48;9.80;99.90
10873;DHT22;34586;53.616;10.032;2023-01-08T09:47:36;9.90;99.90
10873;DHT22;34586;53.616;10.032;2023-01-08T09:50:06;9.90;99.90
10873;DHT22;34586;53.616;10.032;2023-01-08T09:52:32;9.90;99.90
10873;DHT22;34586;53.616;10.032;2023-01-08T09:54:59;9.90;99.90
10873;DHT22;34586;53.616;10.032;2023-01-08T09:57:26;10.00;99.90
10873;DHT22;34586;53.616;10.032;2023-01-08T09:59:53;9.90;99.90
10873;DHT22;34586;53.616;10.032;2023-01-08T10:02:24;10.00;99.90
10873;DHT22;34586;53.616;10.032;2023-01-08T10:04:55;10.10;99.90
10873;DHT22;34586;53.616;10.032;2023-01-08T10:07:23;10.10;99.90
10873;DHT22;34586;53.616;10.032;2023-01-08T10:09:53;10.20;99.90
10873;DHT22;34586;53.616;10.032;2023-01-08T10:12:26;10.20;99.90
10873;DHT22;34586;53.616;10.032;2023-01-08T10:14:54;10.20;99.90
10873;DHT22;34586;53.616;10.032;2023-01-08T10:17:42;10.00;99.90
10873;DHT22;34586;53.616;10.032;2023-01-08T10:20:11;10.20;99.90
10873;DHT22;34586;53.616;10.032;2023-01-08T10:22:37;10.20;99.90
10873;DHT22;34586;53.616;10.032;2023-01-08T10:25:11;10.30;99.90
10873;DHT22;34586;53.616;10.032;2023-01-08T10:27:56;10.30;99.90
10873;DHT22;34586;53.616;10.032;2023-01-08T10:30:38;10.40;99.90
10873;DHT22;34586;53.616;10.032;2023-01-08T10:33:13;10.50;99.90
10873;DHT22;34586;53.616;10.032;2023-01-08T10:35:41;10.50;99.90
10873;DHT22;34586;53.616;10.032;2023-01-08T10:38:29;10.60;99.90
10873;DHT22;34586;53.616;10.032;2023-01-08T10:40:56;10.60;99.90
10873;DHT22;34586;53.616;10.032;2023-01-08T10:43:30;10.70;99.90
10873;DHT22;34586;53.616;10.032;2023-01-08T10:46:07;10.60;99.90
10873;DHT22;34586;53.616;10.032;2023-01-08T10:48:43;10.70;99.90
10873;DHT22;34586;53.616;10.032;2023-01-08T10:51:15;10.80;99.90
10873;DHT22;34586;53.616;10.032;2023-01-08T10:53:42;10.80;99.90
10873;DHT22;34586;53.616;10.032;2023-01-08T10:56:40;10.80;99.90
10873;DHT22;34586;53.616;10.032;2023-01-08T10:59:17;10.80;98.80
10873;DHT22;34586;53.616;10.032;2023-01-08T11:01:46;10.80;99.90
10873;DHT22;34586;53.616;10.032;2023-01-08T11:04:31;10.70;99.90
10873;DHT22;34586;53.616;10.032;2023-01-08T11:07:02;10.60;99.90
10873;DHT22;34586;53.616;10.032;2023-01-08T11:09:36;10.70;99.90
10873;DHT22;34586;53.616;10.032;2023-01-08T11:12:04;10.70;99.90
10873;DHT22;34586;53.616;10.032;2023-01-08T11:14:34;10.60;99.90
10873;DHT22;34586;53.616;10.032;2023-01-08T11:17:01;10.50;99.90
10873;DHT22;34586;53.616;10.032;2023-01-08T11:19:32;10.50;99.90
10873;DHT22;34586;53.616;10.032;2023-01-08T11:22:01;10.50;99.90
10873;DHT22;34586;53.616;10.032;2023-01-08T11:24:34;10.50;99.90
10873;DHT22;34586;53.616;10.032;2023-01-08T11:27:13;10.40;99.90
10873;DHT22;34586;53.616;10.032;2023-01-08T11:29:46;10.40;99.90
10873;DHT22;34586;53.616;10.032;2023-01-08T11:50:26;10.90;99.90
10873;DHT22;34586;53.616;10.032;2023-01-08T11:53:21;11.00;99.90
10873;DHT22;34586;53.616;10.032;2023-01-08T11:59:05;11.00;99.90
10873;DHT22;34586;53.616;10.032;2023-01-08T12:07:53;10.80;99.90
10873;DHT22;34586;53.616;10.032;2023-01-08T12:10:35;10.80;99.90
10873;DHT22;34586;53.616;10.032;2023-01-08T12:13:44;10.80;96.10
10873;DHT22;34586;53.616;10.032;2023-01-08T12:16:10;10.80;95.40
10873;DHT22;34586;53.616;10.032;2023-01-08T12:27:43;10.70;3.90
10873;DHT22;34586;53.616;10.032;2023-01-08T12:33:01;10.70;1.00
10873;DHT22;34586;53.616;10.032;2023-01-08T12:35:37;10.80;1.00
10873;DHT22;34586;53.616;10.032;2023-01-08T12:40:44;10.80;1.00
10873;DHT22;34586;53.616;10.032;2023-01-08T12:43:18;10.80;1.00
10873;DHT22;34586;53.616;10.032;2023-01-08T12:45:47;10.80;1.00
10873;DHT22;34586;53.616;10.032;2023-01-08T12:48:20;10.80;1.00
10873;DHT22;34586;53.616;10.032;2023-01-08T12:51:06;10.80;1.00
10873;DHT22;34586;53.616;10.032;2023-01-08T12:53:56;10.90;1.00
10873;DHT22;34586;53.616;10.032;2023-01-08T12:56:42;10.90;1.00
10873;DHT22;34586;53.616;10.032;2023-01-08T13:02:01;11.10;1.00
10873;DHT22;34586;53.616;10.032;2023-01-08T13:04:44;11.10;1.00
10873;DHT22;34586;53.616;10.032;2023-01-08T13:07:34;11.10;1.00
10873;DHT22;34586;53.616;10.032;2023-01-08T13:12:49;11.10;13.10
10873;DHT22;34586;53.616;10.032;2023-01-08T13:15:20;11.10;29.70
10873;DHT22;34586;53.616;10.032;2023-01-08T13:17:48;11.30;48.10
10873;DHT22;34586;53.616;10.032;2023-01-08T13:20:21;11.40;27.30
10873;DHT22;34586;53.616;10.032;2023-01-08T13:22:53;11.50;1.00
10873;DHT22;34586;53.616;10.032;2023-01-08T13:27:46;11.80;1.00
10873;DHT22;34586;53.616;10.032;2023-01-08T13:30:34;12.00;1.00
10873;DHT22;34586;53.616;10.032;2023-01-08T13:33:01;11.80;1.00
10873;DHT22;34586;53.616;10.032;2023-01-08T13:35:30;11.90;1.00
10873;DHT22;34586;53.616;10.032;2023-01-08T13:38:15;11.80;1.00
10873;DHT22;34586;53.616;10.032;2023-01-08T13:43:14;11.60;1.00
10873;DHT22;34586;53.616;10.032;2023-01-08T13:45:41;11.50;1.00
10873;DHT22;34586;53.616;10.032;2023-01-08T13:48:20;11.40;1.00
10873;DHT22;34586;53.616;10.032;2023-01-08T13:50:46;11.20;1.00
10873;DHT22;34586;53.616;10.032;2023-01-08T13:53:13;11.00;1.00
10873;DHT22;34586;53.616;10.032;2023-01-08T13:55:41;11.00;1.00
10873;DHT22;34586;53.616;10.032;2023-01-08T13:58:43;10.90;1.00
10873;DHT22;34586;53.616;10.032;2023-01-08T14:01:10;10.80;1.00
10873;DHT22;34586;53.616;10.032;2023-01-08T14:03:44;10.70;1.00
10873;DHT22;34586;53.616;10.032;2023-01-08T14:06:20;10.50;1.00
10873;DHT22;34586;53.616;10.032;2023-01-08T14:08:57;10.40;1.00
10873;DHT22;34586;53.616;10.032;2023-01-08T14:11:32;10.40;1.00
10873;DHT22;34586;53.616;10.032;2023-01-08T14:14:01;10.40;1.00
10873;DHT22;34586;53.616;10.032;2023-01-08T14:16:26;10.20;1.00
10873;DHT22;34586;53.616;10.032;2023-01-08T14:18:57;10.20;1.00
10873;DHT22;34586;53.616;10.032;2023-01-08T14:21:24;10.30;1.00
10873;DHT22;34586;53.616;10.032;2023-01-08T14:23:54;10.20;1.00
10873;DHT22;34586;53.616;10.032;2023-01-08T14:26:35;10.20;1.00
10873;DHT22;34586;53.616;10.032;2023-01-08T14:29:14;10.10;1.00
10873;DHT22;34586;53.616;10.032;2023-01-08T14:31:48;10.00;1.00
10873;DHT22;34586;53.616;10.032;2023-01-08T14:34:15;10.10;1.00
10873;DHT22;34586;53.616;10.032;2023-01-08T14:36:41;10.00;1.00
10873;DHT22;34586;53.616;10.032;2023-01-08T14:39:34;9.90;1.00
10873;DHT22;34586;53.616;10.032;2023-01-08T14:45:01;9.90;1.00
10873;DHT22;34586;53.616;10.032;2023-01-08T14:47:36;9.90;60.40
10873;DHT22;34586;53.616;10.032;2023-01-08T14:50:04;9.90;1.00
10873;DHT22;34586;53.616;10.032;2023-01-08T14:52:30;9.90;99.90
10873;DHT22;34586;53.616;10.032;2023-01-08T14:54:58;9.80;1.00
10873;DHT22;34586;53.616;10.032;2023-01-08T14:57:26;9.80;99.90
10873;DHT22;34586;53.616;10.032;2023-01-08T14:59:59;9.70;1.00
10873;DHT22;34586;53.616;10.032;2023-01-08T15:02:31;9.60;1.00
10873;DHT22;34586;53.616;10.032;2023-01-08T15:05:28;9.60;99.90
10873;DHT22;34586;53.616;10.032;2023-01-08T15:11:05;9.30;1.00
10873;DHT22;34586;53.616;10.032;2023-01-08T15:13:35;9.20;1.00
10873;DHT22;34586;53.616;10.032;2023-01-08T15:16:11;9.20;1.00
10873;DHT22;34586;53.616;10.032;2023-01-08T15:18:43;9.10;1.00
10873;DHT22;34586;53.616;10.032;2023-01-08T15:21:16;9.10;1.00
10873;DHT22;34586;53.616;10.032;2023-01-08T15:23:54;9.10;1.00
10873;DHT22;34586;53.616;10.032;2023-01-08T15:26:21;9.00;1.00
10873;DHT22;34586;53.616;10.032;2023-01-08T15:28:59;9.00;1.00
10873;DHT22;34586;53.616;10.032;2023-01-08T15:34:06;8.90;1.00
10873;DHT22;34586;53.616;10.032;2023-01-08T15:36:32;8.80;1.00
10873;DHT22;34586;53.616;10.032;2023-01-08T15:38:57;8.70;1.00
10873;DHT22;34586;53.616;10.032;2023-01-08T15:41:23;8.70;1.00
10873;DHT22;34586;53.616;10.032;2023-01-08T15:44:09;8.70;1.00
10873;DHT22;34586;53.616;10.032;2023-01-08T15:46:36;8.50;1.00
10873;DHT22;34586;53.616;10.032;2023-01-08T15:49:02;8.50;12.70
10873;DHT22;34586;53.616;10.032;2023-01-08T15:51:31;8.60;10.00
10873;DHT22;34586;53.616;10.032;2023-01-08T15:53:58;8.40;26.40
10873;DHT22;34586;53.616;10.032;2023-01-08T15:56:23;8.30;18.10
10873;DHT22;34586;53.616;10.032;2023-01-08T15:58:49;8.20;35.30
10873;DHT22;34586;53.616;10.032;2023-01-08T16:01:17;8.20;73.50
10873;DHT22;34586;53.616;10.032;2023-01-08T16:03:43;8.10;68.20
10873;DHT22;34586;53.616;10.032;2023-01-08T16:06:09;8.20;85.10
10873;DHT22;34586;53.616;10.032;2023-01-08T16:08:36;8.10;99.90
10873;DHT22;34586;53.616;10.032;2023-01-08T16:11:02;8.10;98.50
10873;DHT22;34586;53.616;10.032;2023-01-08T16:13:27;8.00;99.90
10873;DHT22;34586;53.616;10.032;2023-01-08T16:15:53;8.00;97.60
10873;DHT22;34586;53.616;10.032;2023-01-08T16:18:20;8.00;99.90
10873;DHT22;34586;53.616;10.032;2023-01-08T16:20:45;8.00;95.30
10873;DHT22;34586;53.616;10.032;2023-01-08T16:23:11;8.10;99.90
10873;DHT22;34586;53.616;10.032;2023-01-08T16:25:40;8.10;99.90
10873;DHT22;34586;53.616;10.032;2023-01-08T16:28:05;8.10;99.90
10873;DHT22;34586;53.616;10.032;2023-01-08T16:30:31;8.10;94.90
10873;DHT22;34586;53.616;10.032;2023-01-08T16:32:57;8.10;97.10
10873;DHT22;34586;53.616;10.032;2023-01-08T16:35:22;8.00;96.90
10873;DHT22;34586;53.616;10.032;2023-01-08T16:37:48;8.00;96.10
10873;DHT22;34586;53.616;10.032;2023-01-08T16:40:14;8.00;93.70
10873;DHT22;34586;53.616;10.032;2023-01-08T16:42:40;8.10;94.30
10873;DHT22;34586;53.616;10.032;2023-01-08T16:45:07;8.10;88.30
10873;DHT22;34586;53.616;10.032;2023-01-08T16:47:37;8.10;67.50
10873;DHT22;34586;53.616;10.032;2023-01-08T16:50:03;8.10;72.40
10873;DHT22;34586;53.616;10.032;2023-01-08T16:52:29;8.10;84.40
10873;DHT22;34586;53.616;10.032;2023-01-08T16:54:55;8.20;71.30
10873;DHT22;34586;53.616;10.032;2023-01-08T16:57:20;8.20;71.10
10873;DHT22;34586;53.616;10.032;2023-01-08T16:59:46;8.20;62.80
10873;DHT22;34586;53.616;10.032;2023-01-08T17:02:11;8.20;60.50
10873;DHT22;34586;53.616;10.032;2023-01-08T17:04:37;8.20;79.00